Time;durP1;ratioP1;P1;durP2;ratioP2;P2;SDS_P1;SDS_P2;PMS_P1;PMS_P2;Temp;Humidity;BMP_temperature;BMP_pressure;BME280_temperature;BME280_humidity;BME280_pressure;Samples;Min_cycle;Max_cycle;Signal;HPM_P1;HPM_P2
2020/12/29 00:01:34;;;;;;;31.67;13.90;;;;;;;1.53;85.74;98005.38;5052036;28;20123;-65
2020/12/29 00:03:59;;;;;;;;;;;;;;;1.42;85.59;97998.66;5051571;28;20048;-65
2020/12/29 00:06:25;;;;;;;;;;;;;;;1.46;85.91;97992.09;5052294;28;19916;-64
2020/12/29 00:08:50;;;;;;;22.43;12.87;;;;;;;1.43;85.98;97989.81;5051961;28;20010;-65
2020/12/29 00:11:15;;;;;;;23.77;13.80;;;;;;;1.42;86.58;97991.59;5052001;28;20036;-65
2020/12/29 00:13:41;;;;;;;26.13;13.57;;;;;;;1.47;86.47;97997.19;5051864;28;20414;-65
2020/12/29 00:16:06;;;;;;;22.27;13.48;;;;;;;1.46;86.43;97992.09;5051321;28;20386;-65
2020/12/29 00:18:32;;;;;;;23.53;12.17;;;;;;;1.49;86.75;97994.34;5050799;28;20064;-65
2020/12/29 00:20:57;;;;;;;25.73;12.60;;;;;;;1.53;86.91;97989.59;5051812;28;20118;-65
2020/12/29 00:23:22;;;;;;;28.23;14.10;;;;;;;1.44;86.58;97983.53;5050722;28;20075;-65
2020/12/29 00:25:47;;;;;;;23.50;14.33;;;;;;;1.44;86.91;97986.97;5050516;28;20126;-65
2020/12/29 00:28:13;;;;;;;26.33;14.60;;;;;;;1.48;87.15;97995.38;5051657;28;20126;-65
2020/12/29 00:30:38;;;;;;;23.80;13.13;;;;;;;1.48;87.55;97984.84;5051576;28;20056;-65
2020/12/29 00:33:03;;;;;;;27.83;13.73;;;;;;;1.47;87.38;97978.78;5050651;28;20138;-65
2020/12/29 00:35:29;;;;;;;29.50;16.00;;;;;;;1.48;87.47;97972.50;5051391;28;20500;-66
2020/12/29 00:37:54;;;;;;;26.87;13.57;;;;;;;1.44;87.83;97973.03;5050532;28;20462;-66
2020/12/29 00:40:19;;;;;;;26.33;15.43;;;;;;;1.50;87.86;97974.13;5051484;28;20100;-66
2020/12/29 00:42:45;;;;;;;26.37;14.40;;;;;;;1.47;87.89;97970.88;5051473;28;20091;-66
2020/12/29 00:45:10;;;;;;;29.53;15.30;;;;;;;1.47;87.97;97970.03;5050250;28;20076;-66
2020/12/29 00:47:35;;;;;;;29.20;14.17;;;;;;;1.43;88.02;97963.50;5050247;28;20130;-67
2020/12/29 00:50:01;;;;;;;26.80;14.47;;;;;;;1.44;88.16;97962.50;5050305;28;20071;-67
2020/12/29 00:52:27;;;;;;;30.30;15.73;;;;;;;1.50;88.46;97969.72;5051389;28;20061;-67
2020/12/29 00:54:59;;;;;;;28.00;15.25;;;;;;;1.46;88.33;97963.97;5051201;28;20060;-67
2020/12/29 00:57:34;;;;;;;31.40;15.95;;;;;;;1.43;88.66;97966.94;5050207;28;20351;-68
2020/12/29 01:00:00;;;;;;;30.48;16.08;;;;;;;1.46;88.67;97960.53;5050150;28;20072;-68
2020/12/29 01:02:27;;;;;;;31.50;17.08;;;;;;;1.47;88.84;97964.78;5050321;28;20036;-67
2020/12/29 01:05:12;;;;;;;29.98;16.13;;;;;;;1.50;88.85;97961.84;5049775;28;20061;-67
2020/12/29 01:07:38;;;;;;;35.80;17.58;;;;;;;1.48;88.83;97953.28;5050056;28;20075;-67
2020/12/29 01:10:04;;;;;;;34.63;15.70;;;;;;;1.48;89.00;97946.22;5050050;28;20037;-67
2020/12/29 01:12:33;;;;;;;33.42;17.40;;;;;;;1.47;89.05;97955.09;5034101;28;20044;-67
2020/12/29 01:14:58;;;;;;;37.60;18.53;;;;;;;1.50;89.13;97950.47;5050105;28;20037;-67
2020/12/29 01:17:30;;;;;;;36.45;18.10;;;;;;;1.48;89.22;97951.47;5034146;28;20041;-66
2020/12/29 01:19:56;;;;;;;31.57;16.50;;;;;;;1.50;89.53;97953.94;5051010;28;20040;-65
2020/12/29 01:22:21;;;;;;;32.67;17.43;;;;;;;1.44;89.48;97944.09;5051074;28;20068;-65
2020/12/29 01:24:47;;;;;;;28.70;15.87;;;;;;;1.47;89.49;97935.84;5049906;28;20362;-65
2020/12/29 01:27:12;;;;;;;30.33;14.52;;;;;;;1.46;89.33;97934.22;5049758;28;20098;-65
2020/12/29 01:29:37;;;;;;;27.77;14.20;;;;;;;1.45;89.39;97935.22;5050094;28;20041;-66
2020/12/29 01:32:03;;;;;;;24.23;13.40;;;;;;;1.44;89.42;97934.41;5050001;28;20465;-66
2020/12/29 01:34:28;;;;;;;23.23;13.17;;;;;;;1.46;89.56;97939.50;5050077;28;20056;-66
2020/12/29 01:36:53;;;;;;;27.27;14.37;;;;;;;1.35;89.51;97934.63;5050598;28;20331;-65
2020/12/29 01:39:19;;;;;;;29.87;14.37;;;;;;;1.34;89.90;97930.38;5049806;28;20424;-65
2020/12/29 01:41:44;;;;;;;26.13;13.80;;;;;;;1.38;89.89;97934.25;5033300;28;20048;-65
2020/12/29 01:44:14;;;;;;;24.10;13.68;;;;;;;1.41;89.88;97926.06;5050841;28;20040;-66
2020/12/29 01:46:41;;;;;;;28.02;14.18;;;;;;;1.42;89.95;97936.38;5033082;28;20033;-66
2020/12/29 01:49:08;;;;;;;30.23;13.45;;;;;;;1.43;90.11;97932.78;5050660;28;20115;-66
2020/12/29 01:51:33;;;;;;;23.50;11.77;;;;;;;1.41;89.98;97924.25;5049860;28;20033;-66
2020/12/29 01:53:59;;;;;;;25.33;13.30;;;;;;;1.43;89.93;97926.69;5049487;28;20040;-66
2020/12/29 01:56:26;;;;;;;21.25;11.88;;;;;;;1.42;89.99;97935.56;5050341;28;20052;-66
2020/12/29 01:58:51;;;;;;;20.02;10.27;;;;;;;1.41;89.99;97928.69;5049797;28;20049;-66
2020/12/29 02:01:17;;;;;;;22.90;11.20;;;;;;;1.42;90.03;97919.78;5049749;28;20072;-66
2020/12/29 02:03:42;;;;;;;21.93;11.57;;;;;;;1.41;89.77;97928.69;5049664;28;20692;-66
2020/12/29 02:06:08;;;;;;;19.30;10.50;;;;;;;1.19;90.14;97920.56;5050343;28;20470;-65
2020/12/29 02:08:33;;;;;;;19.27;9.23;;;;;;;1.27;89.98;97915.28;5049580;28;20037;-65
2020/12/29 02:11:00;;;;;;;22.95;11.57;;;;;;;1.20;90.29;97924.84;5049731;28;20371;-65
2020/12/29 02:13:25;;;;;;;23.95;10.48;;;;;;;1.17;90.37;97921.72;5050577;28;20341;-65
2020/12/29 02:15:50;;;;;;;22.63;11.13;;;;;;;1.12;90.49;97919.59;5050268;28;20466;-65
2020/12/29 02:18:16;;;;;;;22.40;10.00;;;;;;;1.06;90.72;97930.81;5052882;28;20089;-65
2020/12/29 02:20:41;;;;;;;20.47;10.93;;;;;;;1.04;90.75;97923.09;5054126;28;20041;-65
2020/12/29 02:23:09;;;;;;;19.77;10.43;;;;;;;0.90;90.62;97925.63;5052963;28;20044;-65
2020/12/29 02:25:34;;;;;;;18.38;10.32;;;;;;;0.86;90.24;97929.56;5053833;28;20366;-65
2020/12/29 02:28:00;;;;;;;20.63;10.63;;;;;;;0.73;90.40;97923.06;5052756;28;20044;-65
2020/12/29 02:30:26;;;;;;;16.55;9.20;;;;;;;0.76;90.08;97922.72;5053934;28;20052;-65
2020/12/29 02:32:51;;;;;;;21.23;11.23;;;;;;;0.58;90.10;97920.28;5052935;28;20071;-65
2020/12/29 02:35:17;;;;;;;21.07;10.20;;;;;;;0.44;90.38;97918.34;5052711;28;20037;-65
2020/12/29 02:37:44;;;;;;;22.70;11.67;;;;;;;0.34;90.72;97921.16;5052458;28;20063;-65
2020/12/29 02:40:09;;;;;;;23.15;11.57;;;;;;;0.39;90.85;97925.91;5053730;28;20040;-65
2020/12/29 02:42:34;;;;;;;21.93;11.00;;;;;;;0.30;90.65;97917.22;5053721;28;20032;-65
2020/12/29 02:45:00;;;;;;;24.53;12.57;;;;;;;0.22;90.89;97919.88;5053759;28;20127;-64
2020/12/29 02:47:25;;;;;;;24.77;12.35;;;;;;;0.29;91.02;97923.47;5052348;28;20028;-64
2020/12/29 02:49:50;;;;;;;25.67;13.57;;;;;;;0.29;91.08;97918.22;5035925;28;20481;-65
2020/12/29 02:52:17;;;;;;;25.70;12.37;;;;;;;0.34;90.73;97917.72;5053360;28;20458;-65
2020/12/29 02:54:42;;;;;;;28.35;13.13;;;;;;;0.34;91.08;97925.59;5052419;28;20359;-65
2020/12/29 02:57:07;;;;;;;22.10;11.97;;;;;;;0.13;91.20;97926.91;5052194;28;20040;-65
2020/12/29 02:59:33;;;;;;;22.57;11.20;;;;;;;0.10;91.26;97929.06;5053333;28;20446;-65
2020/12/29 03:01:58;;;;;;;19.77;11.37;;;;;;;0.14;91.46;97920.72;5053457;28;20374;-65
2020/12/29 03:04:24;;;;;;;24.63;12.63;;;;;;;0.17;91.22;97930.06;5052088;28;20040;-65
2020/12/29 03:06:49;;;;;;;21.27;10.65;;;;;;;0.19;91.29;97922.84;5051961;28;20033;-65
2020/12/29 03:09:15;;;;;;;22.13;11.87;;;;;;;0.17;91.32;97930.06;5052179;28;20044;-66
2020/12/29 03:11:41;;;;;;;20.70;10.75;;;;;;;0.11;90.70;97936.75;5053268;28;20037;-66
2020/12/29 03:14:07;;;;;;;20.83;10.85;;;;;;;0.09;90.90;97937.91;5052153;28;20033;-66
2020/12/29 03:16:33;;;;;;;21.50;11.23;;;;;;;0.03;90.91;97941.22;5052724;28;20037;-66
2020/12/29 03:19:01;;;;;;;20.38;10.23;;;;;;;0.02;90.73;97932.50;5052018;28;20033;-66
2020/12/29 03:21:27;;;;;;;18.40;10.52;;;;;;;-0.03;90.68;97940.84;5052881;28;20036;-66
2020/12/29 03:23:52;;;;;;;20.23;11.80;;;;;;;-0.07;90.79;97933.47;5052940;28;20450;-66
2020/12/29 03:26:18;;;;;;;22.20;10.77;;;;;;;-0.14;90.54;97928.09;5052636;28;20036;-66
2020/12/29 03:28:44;;;;;;;24.67;11.43;;;;;;;-0.17;90.51;97931.00;5052695;28;20048;-66
2020/12/29 03:31:09;;;;;;;19.48;10.77;;;;;;;-0.20;90.75;97928.72;5035231;28;20397;-66
2020/12/29 03:33:34;;;;;;;21.03;11.20;;;;;;;-0.21;90.69;97927.09;5052674;28;20473;-66
2020/12/29 03:36:00;;;;;;;21.60;11.83;;;;;;;-0.22;90.84;97930.69;5052121;28;20057;-66
2020/12/29 03:38:26;;;;;;;19.33;11.63;;;;;;;-0.27;90.82;97928.56;5052612;28;20037;-66
2020/12/29 03:40:52;;;;;;;23.42;12.10;;;;;;;-0.26;90.89;97926.75;5051601;28;20400;-66
2020/12/29 03:43:17;;;;;;;20.48;11.88;;;;;;;-0.27;90.91;97932.97;5052460;28;20037;-66
2020/12/29 03:45:47;;;;;;;23.63;12.07;;;;;;;-0.27;90.79;97928.56;5052259;28;20024;-66
2020/12/29 03:48:14;;;;;;;22.58;11.85;;;;;;;-0.25;90.95;97925.78;5052304;28;20175;-67
2020/12/29 03:50:41;;;;;;;21.20;11.90;;;;;;;-0.22;91.06;97934.13;5052261;28;20090;-67
2020/12/29 03:53:06;;;;;;;21.27;10.98;;;;;;;-0.24;90.89;97938.72;5052372;28;20047;-67
2020/12/29 03:55:32;;;;;;;24.13;11.67;;;;;;;-0.31;90.77;97942.97;5051059;28;20119;-67
2020/12/29 03:57:58;;;;;;;24.38;12.20;;;;;;;-0.36;90.95;97944.44;5051175;28;20126;-67
2020/12/29 04:00:23;;;;;;;23.73;13.07;;;;;;;-0.29;91.08;97934.94;5051153;28;20087;-67
2020/12/29 04:02:49;;;;;;;25.58;12.68;;;;;;;-0.30;90.96;97931.50;5051206;28;20275;-67
2020/12/29 04:05:14;;;;;;;22.37;11.57;;;;;;;-0.44;91.33;97938.22;5051706;28;20044;-67
2020/12/29 04:07:40;;;;;;;21.02;10.75;;;;;;;-0.41;91.32;97931.00;5050858;28;20514;-67
2020/12/29 04:10:05;;;;;;;23.70;12.70;;;;;;;-0.46;91.31;97934.09;5052027;28;20128;-67
2020/12/29 04:12:31;;;;;;;21.23;11.90;;;;;;;-0.37;91.59;97937.56;5051938;28;20517;-67
2020/12/29 04:14:56;;;;;;;23.38;12.52;;;;;;;-0.33;91.45;97933.63;5051185;28;20033;-67
2020/12/29 04:17:22;;;;;;;21.17;11.27;;;;;;;-0.33;91.58;97931.00;5051519;28;20032;-67
2020/12/29 04:19:48;;;;;;;25.83;11.88;;;;;;;-0.33;91.52;97923.13;5051742;28;20043;-67
2020/12/29 04:22:13;;;;;;;21.23;11.63;;;;;;;-0.30;91.22;97928.88;5051836;28;20037;-67
2020/12/29 04:24:38;;;;;;;23.27;11.60;;;;;;;-0.34;91.46;97932.00;5051767;28;20044;-67
2020/12/29 04:27:04;;;;;;;22.47;10.37;;;;;;;-0.32;91.50;97930.03;5050649;28;20037;-67
2020/12/29 04:29:29;;;;;;;20.43;11.07;;;;;;;-0.50;91.50;97930.97;5050766;28;20047;-67
2020/12/29 04:31:54;;;;;;;22.40;10.87;;;;;;;-0.59;91.67;97924.06;5051688;28;20039;-67
2020/12/29 04:34:19;;;;;;;17.43;9.60;;;;;;;-0.53;91.82;97925.25;5051460;28;20033;-67
2020/12/29 04:36:45;;;;;;;21.83;10.83;;;;;;;-0.63;91.75;97938.50;5050237;28;20033;-67
2020/12/29 04:39:10;;;;;;;21.87;11.03;;;;;;;-0.64;92.25;97939.47;5051555;28;20378;-67
2020/12/29 04:41:37;;;;;;;23.50;10.30;;;;;;;-0.62;92.14;97929.66;5051056;28;20072;-67
2020/12/29 04:44:02;;;;;;;23.13;12.05;;;;;;;-0.71;92.28;97938.47;5050496;28;20438;-67
2020/12/29 04:46:30;;;;;;;21.20;10.57;;;;;;;-0.68;92.15;97938.13;5050172;28;20040;-67
2020/12/29 04:48:56;;;;;;;22.33;10.93;;;;;;;-0.59;92.40;97939.78;5051281;28;20141;-67
2020/12/29 04:51:21;;;;;;;19.85;9.52;;;;;;;-0.62;92.16;97941.94;5051303;28;20086;-67
2020/12/29 04:53:57;;;;;;;18.77;10.57;;;;;;;-0.58;92.18;97941.47;5051455;28;20068;-67
2020/12/29 04:56:31;;;;;;;;;;;;;;;-0.59;92.17;97945.03;5050358;28;20055;-67
2020/12/29 04:58:58;;;;;;;21.42;10.82;;;;;;;-0.54;92.16;97942.78;5050342;28;20051;-68
2020/12/29 05:01:24;;;;;;;17.77;9.75;;;;;;;-0.52;92.26;97945.22;5051123;28;20178;-68
2020/12/29 05:03:50;;;;;;;21.42;11.02;;;;;;;-0.52;92.02;97940.78;5050068;28;20037;-68
2020/12/29 05:06:16;;;;;;;17.35;9.82;;;;;;;-0.49;92.13;97944.91;5050858;28;20037;-68
2020/12/29 05:08:49;;;;;;;20.20;10.80;;;;;;;-0.50;92.05;97935.41;5050271;28;20099;-68
2020/12/29 05:11:16;;;;;;;17.08;9.88;;;;;;;-0.51;92.17;97937.22;5050139;28;20037;-71
2020/12/29 05:13:43;;;;;;;19.98;11.05;;;;;;;-0.58;92.11;97944.06;5051227;28;20041;-71
2020/12/29 05:16:08;;;;;;;19.33;10.55;;;;;;;-0.63;92.22;97943.75;5049634;28;20036;-71
2020/12/29 05:18:34;;;;;;;17.10;10.18;;;;;;;-0.66;92.31;97930.94;5050042;28;20043;-71
2020/12/29 05:20:59;;;;;;;25.13;13.07;;;;;;;-0.59;92.21;97939.78;5051079;28;20040;-72
2020/12/29 05:23:25;;;;;;;20.02;10.15;;;;;;;-0.53;92.31;97944.41;5033461;28;20033;-72
2020/12/29 05:25:51;;;;;;;18.20;9.53;;;;;;;-0.47;92.25;97937.69;5049823;28;20075;-72
2020/12/29 05:28:17;;;;;;;21.90;10.80;;;;;;;-0.46;92.25;97941.97;5050918;28;20041;-71
2020/12/29 05:30:42;;;;;;;23.15;10.90;;;;;;;-0.54;91.92;97941.94;5050104;28;20051;-72
2020/12/29 05:33:11;;;;;;;18.83;10.73;;;;;;;-0.56;92.19;97946.50;5049992;28;20087;-72
2020/12/29 05:35:38;;;;;;;20.63;10.68;;;;;;;-0.55;92.20;97942.94;5049576;28;20127;-72
2020/12/29 05:38:05;;;;;;;18.38;11.07;;;;;;;-0.51;91.87;97937.22;5049908;28;20094;-72
2020/12/29 05:40:31;;;;;;;22.08;10.23;;;;;;;-0.50;92.39;97941.47;5049788;28;20480;-72
2020/12/29 05:42:58;;;;;;;18.23;10.57;;;;;;;-0.50;92.19;97944.06;5050863;28;20124;-72
2020/12/29 05:45:28;;;;;;;20.35;10.75;;;;;;;-0.50;92.25;97946.69;5049693;28;20045;-72
2020/12/29 05:47:56;;;;;;;18.27;10.98;;;;;;;-0.57;92.12;97948.31;5050540;28;20037;-72
2020/12/29 05:50:22;;;;;;;16.58;9.65;;;;;;;-0.52;92.15;97938.19;5049726;28;20486;-72
2020/12/29 05:53:10;;;;;;;19.45;11.30;;;;;;;-0.74;92.18;97936.16;5051627;28;20041;-72
2020/12/29 05:55:36;;;;;;;20.98;9.85;;;;;;;-0.67;92.42;97937.97;5054232;28;20060;-71
2020/12/29 05:58:11;;;;;;;21.00;11.03;;;;;;;-0.72;92.54;97937.66;5053421;28;20343;-71
2020/12/29 06:00:38;;;;;;;21.38;11.10;;;;;;;-0.75;92.52;97935.34;5053550;28;20122;-71
2020/12/29 06:03:05;;;;;;;22.42;11.95;;;;;;;-0.77;92.67;97936.47;5054152;28;20371;-71
2020/12/29 06:05:33;;;;;;;21.83;11.15;;;;;;;-0.67;92.68;97927.50;5053316;28;20052;-71
2020/12/29 06:08:00;;;;;;;21.42;10.93;;;;;;;-0.57;92.55;97942.25;5053328;28;20072;-72
2020/12/29 06:10:27;;;;;;;18.63;10.45;;;;;;;-0.57;92.60;97929.16;5054236;28;20339;-72
2020/12/29 06:13:01;;;;;;;20.98;10.63;;;;;;;-0.62;92.48;97929.66;5054159;28;20040;-72
2020/12/29 06:15:31;;;;;;;19.27;10.02;;;;;;;-0.67;92.52;97921.44;5054146;28;20044;-71
2020/12/29 06:18:02;;;;;;;21.08;11.10;;;;;;;-0.67;92.40;97926.69;5053982;28;20044;-72
2020/12/29 06:20:45;;;;;;;21.88;12.13;;;;;;;-0.73;92.62;97928.13;5053186;28;20037;-72
2020/12/29 06:23:17;;;;;;;21.50;11.50;;;;;;;-0.75;92.61;97924.03;5054076;28;20055;-72
2020/12/29 06:25:45;;;;;;;22.75;11.50;;;;;;;-0.74;92.74;97928.31;5053708;28;20124;-72
2020/12/29 06:28:14;;;;;;;19.52;11.48;;;;;;;-0.75;92.73;97934.50;5052897;28;20045;-72
2020/12/29 06:30:40;;;;;;;21.95;11.95;;;;;;;-0.69;92.82;97933.88;5053015;28;20052;-72
2020/12/29 06:33:07;;;;;;;22.77;12.00;;;;;;;-0.70;92.72;97929.63;5053313;28;20450;-72
2020/12/29 06:35:33;;;;;;;22.08;12.63;;;;;;;-0.77;92.71;97931.22;5052805;28;20032;-72
2020/12/29 06:38:11;;;;;;;24.55;12.68;;;;;;;-0.78;92.89;97940.88;5036148;28;20082;-71
2020/12/29 06:40:37;;;;;;;26.33;13.07;;;;;;;-0.76;92.96;97938.94;5053671;28;20123;-72
2020/12/29 06:43:07;;;;;;;22.08;13.43;;;;;;;-0.80;92.93;97947.28;5052740;28;20060;-71
2020/12/29 06:45:34;;;;;;;25.38;13.68;;;;;;;-0.81;93.02;97940.41;5052337;28;20055;-72
2020/12/29 06:47:59;;;;;;;24.98;12.93;;;;;;;-0.79;93.17;97943.69;5052336;28;20048;-72
2020/12/29 06:50:32;;;;;;;26.05;13.55;;;;;;;-0.71;93.02;97951.56;5053431;28;20040;-71
2020/12/29 06:53:02;;;;;;;24.92;13.38;;;;;;;-0.69;92.77;97954.84;5052445;28;20037;-72
2020/12/29 06:55:49;;;;;;;22.23;12.07;;;;;;;-0.62;92.95;97948.00;5052108;28;20033;-71
2020/12/29 06:58:33;;;;;;;26.45;13.52;;;;;;;-0.63;92.48;97959.47;5035393;28;20449;-72
2020/12/29 07:01:25;;;;;;;26.08;13.63;;;;;;;-0.57;93.09;97958.81;5035767;28;20028;-73
2020/12/29 07:04:05;;;;;;;23.23;12.38;;;;;;;-0.60;92.82;97961.75;5051857;28;20097;-72
2020/12/29 07:06:35;;;;;;;23.35;12.32;;;;;;;-0.65;92.94;97962.22;5052646;28;20041;-72
2020/12/29 07:09:08;;;;;;;25.35;13.27;;;;;;;-0.62;92.81;97966.34;5053185;28;20051;-72
2020/12/29 07:11:35;;;;;;;24.90;14.15;;;;;;;-0.72;92.84;97965.66;5052197;28;20047;-72
2020/12/29 07:14:04;;;;;;;26.05;13.85;;;;;;;-0.75;92.89;97976.44;5053074;28;20051;-72
2020/12/29 07:16:30;;;;;;;26.23;13.80;;;;;;;-0.69;92.88;97981.88;5052431;28;20087;-72
2020/12/29 07:19:09;;;;;;;29.40;15.63;;;;;;;-0.73;93.06;97979.72;5051917;28;20083;-72
2020/12/29 07:21:35;;;;;;;23.92;13.30;;;;;;;-0.78;92.99;97982.81;5051989;28;20057;-72
2020/12/29 07:24:04;;;;;;;28.67;14.30;;;;;;;-0.74;92.98;97988.56;5052863;28;20056;-72
2020/12/29 07:26:35;;;;;;;26.50;14.38;;;;;;;-0.71;92.95;97977.75;5052329;28;20036;-72
2020/12/29 07:29:00;;;;;;;29.95;14.75;;;;;;;-0.71;92.73;97983.00;5052777;28;20087;-73
2020/12/29 07:31:25;;;;;;;26.60;15.17;;;;;;;-0.71;92.80;97989.06;5052585;28;20068;-73
2020/12/29 07:33:56;;;;;;;27.42;13.43;;;;;;;-0.75;93.01;97986.91;5051602;28;20044;-73
2020/12/29 07:36:22;;;;;;;29.25;14.65;;;;;;;-0.73;92.79;97988.38;5051698;28;20059;-73
2020/12/29 07:38:50;;;;;;;27.95;15.02;;;;;;;-0.64;92.80;97990.06;5051548;28;20032;-73
2020/12/29 07:41:18;;;;;;;25.40;13.05;;;;;;;-0.61;92.79;97994.16;5052468;28;20109;-73
2020/12/29 07:43:45;;;;;;;26.27;14.43;;;;;;;-0.65;92.80;98003.34;5052059;28;20048;-72
2020/12/29 07:46:13;;;;;;;25.27;14.75;;;;;;;-0.61;92.81;98011.69;5051783;28;20039;-72
2020/12/29 07:48:39;;;;;;;27.63;14.35;;;;;;;-0.73;92.89;98001.50;5052360;28;20028;-72
2020/12/29 07:51:06;;;;;;;28.95;14.25;;;;;;;-0.70;93.01;98003.00;5052151;28;20063;-72
2020/12/29 07:53:31;;;;;;;28.52;14.25;;;;;;;-0.73;92.89;98013.78;5051043;28;20065;-72
2020/12/29 07:55:57;;;;;;;28.67;14.90;;;;;;;-0.72;93.04;98015.44;5034095;28;20234;-71
2020/12/29 07:58:23;;;;;;;28.27;14.13;;;;;;;-0.62;93.08;98023.97;5050970;28;20079;-72
2020/12/29 08:00:48;;;;;;;28.52;14.48;;;;;;;-0.60;93.17;98027.28;5050871;28;20601;-72
2020/12/29 08:03:15;;;;;;;24.83;13.27;;;;;;;-0.59;93.09;98028.91;5050908;28;20130;-72
2020/12/29 08:05:40;;;;;;;28.63;15.38;;;;;;;-0.59;92.83;98033.31;5051399;28;20291;-72
2020/12/29 08:08:10;;;;;;;31.27;15.53;;;;;;;-0.60;92.64;98031.69;5050221;28;20045;-72
2020/12/29 08:10:38;;;;;;;30.52;15.70;;;;;;;-0.56;92.94;98043.47;5050320;28;20037;-73
2020/12/29 08:13:11;;;;;;;29.23;14.30;;;;;;;-0.61;92.87;98033.47;5033402;28;20033;-72
2020/12/29 08:15:38;;;;;;;34.63;17.10;;;;;;;-0.53;92.69;98033.53;5032294;28;20029;-73
2020/12/29 08:18:19;;;;;;;33.97;16.13;;;;;;;-0.51;92.79;98046.47;5050954;28;20052;-73
2020/12/29 08:20:49;;;;;;;32.90;16.30;;;;;;;-0.54;92.91;98045.00;5050991;28;20079;-73
2020/12/29 08:23:19;;;;;;;30.92;16.02;;;;;;;-0.51;92.61;98043.84;5050858;28;20036;-72
2020/12/29 08:25:52;;;;;;;32.53;14.82;;;;;;;-0.54;92.75;98045.00;5049661;28;20515;-69
2020/12/29 08:28:19;;;;;;;33.50;15.07;;;;;;;-0.56;92.63;98049.56;5050833;28;20128;-69
2020/12/29 08:30:44;;;;;;;29.08;15.45;;;;;;;-0.46;92.93;98045.00;5049992;28;20045;-68
2020/12/29 08:33:14;;;;;;;34.25;16.42;;;;;;;-0.44;92.66;98056.16;5049918;28;20040;-73
2020/12/29 08:35:44;;;;;;;36.17;16.58;;;;;;;-0.46;92.48;98065.97;5049575;28;20048;-73
2020/12/29 08:38:14;;;;;;;38.17;17.30;;;;;;;-0.55;92.50;98063.50;5050590;28;20076;-73
2020/12/29 08:40:45;;;;;;;32.10;14.85;;;;;;;-0.41;92.42;98072.56;5050756;28;20037;-73
2020/12/29 08:43:10;;;;;;;37.28;16.98;;;;;;;-0.46;92.57;98075.66;5049776;28;20033;-73
2020/12/29 08:45:35;;;;;;;46.60;18.67;;;;;;;-0.57;92.66;98075.94;5050553;28;20048;-73
2020/12/29 08:48:01;;;;;;;43.35;18.63;;;;;;;-0.58;92.70;98080.34;5050549;28;20040;-73
2020/12/29 08:50:29;;;;;;;43.63;18.13;;;;;;;-0.57;92.65;98079.34;5049647;28;20035;-73
2020/12/29 08:53:08;;;;;;;47.65;19.98;;;;;;;-0.56;92.68;98075.78;5050424;28;20370;-72
2020/12/29 08:55:35;;;;;;;52.15;19.08;;;;;;;-0.51;92.69;98076.13;5050124;28;20362;-72
2020/12/29 08:58:00;;;;;;;46.58;19.00;;;;;;;-0.43;92.73;98083.19;5050351;28;20055;-73
2020/12/29 09:00:28;;;;;;;53.65;21.30;;;;;;;-0.52;92.52;98092.00;5049440;28;20044;-72
2020/12/29 09:02:53;;;;;;;47.25;20.02;;;;;;;-0.57;92.68;98095.09;5049438;28;20092;-73
2020/12/29 09:05:22;;;;;;;54.70;20.02;;;;;;;-0.52;92.90;98098.06;5049972;28;20029;-73
2020/12/29 09:07:47;;;;;;;62.42;21.98;;;;;;;-0.55;92.89;98092.31;5050094;28;20033;-73
2020/12/29 09:10:14;;;;;;;67.20;23.00;;;;;;;-0.55;92.75;98093.13;5050365;28;20037;-73
2020/12/29 09:12:40;;;;;;;61.45;20.02;;;;;;;-0.55;92.85;98095.75;5032871;28;20277;-73
2020/12/29 09:15:08;;;;;;;65.57;20.93;;;;;;;-0.54;92.91;98105.28;5049403;28;20071;-73
2020/12/29 09:17:39;;;;;;;73.93;22.63;;;;;;;-0.64;93.27;98104.56;5049102;28;20056;-72
2020/12/29 09:20:22;;;;;;;63.47;24.25;;;;;;;-0.64;93.28;98107.16;5049181;28;20043;-73
2020/12/29 09:23:03;;;;;;;65.60;22.15;;;;;;;-0.64;93.52;98109.78;5050289;28;20045;-73
2020/12/29 09:25:34;;;;;;;56.25;21.05;;;;;;;-0.56;93.43;98112.47;5032457;28;20540;-73
2020/12/29 09:28:14;;;;;;;73.78;23.70;;;;;;;-0.55;93.46;98118.53;5053899;28;20041;-73
2020/12/29 09:30:40;;;;;;;72.07;22.92;;;;;;;-0.52;93.16;98119.03;5054232;28;20041;-73
2020/12/29 09:33:06;;;;;;;73.03;24.15;;;;;;;-0.62;93.44;98120.94;5053146;28;20194;-73
2020/12/29 09:35:32;;;;;;;70.67;22.17;;;;;;;-0.55;93.59;98127.19;5053936;28;20037;-73
2020/12/29 09:37:58;;;;;;;60.95;22.88;;;;;;;-0.48;93.58;98130.03;5036633;28;20127;-73
2020/12/29 09:40:24;;;;;;;56.90;22.98;;;;;;;-0.47;93.49;98127.25;5053112;28;20041;-73
2020/12/29 09:42:50;;;;;;;58.58;20.25;;;;;;;-0.39;93.41;98139.59;5052872;28;20044;-73
2020/12/29 09:45:24;;;;;;;59.60;22.88;;;;;;;-0.38;93.47;98130.72;5053916;28;20072;-73
2020/12/29 09:47:50;;;;;;;62.65;25.55;;;;;;;-0.33;93.17;98138.97;5052202;28;20367;-73
2020/12/29 09:50:16;;;;;;;55.40;21.35;;;;;;;-0.28;92.94;98141.09;5052936;28;20070;-73
2020/12/29 09:52:42;;;;;;;57.15;21.13;;;;;;;-0.29;93.16;98139.47;5036215;28;20041;-73
2020/12/29 09:55:07;;;;;;;61.87;22.17;;;;;;;-0.28;92.94;98146.34;5052829;28;20363;-73
2020/12/29 09:57:33;;;;;;;70.00;25.38;;;;;;;-0.36;92.89;98147.13;5052141;28;20132;-73
2020/12/29 09:59:58;;;;;;;47.95;20.75;;;;;;;-0.28;92.89;98156.81;5052710;28;20048;-73
2020/12/29 10:02:24;;;;;;;56.43;23.20;;;;;;;-0.33;92.99;98145.97;5053577;28;20032;-73
2020/12/29 10:04:50;;;;;;;58.90;22.48;;;;;;;-0.30;92.78;98145.69;5035813;28;20063;-73
2020/12/29 10:07:15;;;;;;;63.67;23.55;;;;;;;-0.26;92.87;98150.47;5053306;28;20033;-72
2020/12/29 10:09:41;;;;;;;72.85;28.10;;;;;;;-0.26;92.89;98153.09;5052386;28;20052;-73
2020/12/29 10:12:06;;;;;;;77.80;25.40;;;;;;;-0.31;92.94;98157.13;5053294;28;20071;-73
2020/12/29 10:14:32;;;;;;;76.85;26.63;;;;;;;-0.26;93.25;98165.34;5052642;28;20083;-73
2020/12/29 10:16:57;;;;;;;103.30;29.40;;;;;;;-0.26;93.40;98165.34;5053093;28;20528;-73
2020/12/29 10:19:22;;;;;;;106.27;30.43;;;;;;;-0.28;92.88;98165.53;5052508;28;20119;-73
2020/12/29 10:21:52;;;;;;;89.25;28.70;;;;;;;-0.23;93.15;98165.06;5053385;28;20087;-73
2020/12/29 10:24:17;;;;;;;103.82;31.25;;;;;;;-0.27;93.25;98166.34;5052046;28;20484;-72
2020/12/29 10:26:43;;;;;;;92.33;30.23;;;;;;;-0.22;93.14;98167.50;5051879;28;20044;-72
2020/12/29 10:29:08;;;;;;;103.90;32.28;;;;;;;-0.25;93.35;98172.25;5052131;28;20043;-73
2020/12/29 10:31:34;;;;;;;91.27;30.10;;;;;;;-0.17;93.30;98169.66;5052177;28;20571;-73
2020/12/29 10:34:02;;;;;;;94.70;28.23;;;;;;;-0.13;93.20;98171.00;5051417;28;20724;-72
2020/12/29 10:36:34;;;;;;;88.20;30.33;;;;;;;-0.14;93.35;98164.13;5051035;28;20059;-72
2020/12/29 10:39:01;;;;;;;99.43;31.23;;;;;;;-0.14;93.27;98164.13;5049229;28;20044;-72
2020/12/29 10:41:33;;;;;;;98.90;34.08;;;;;;;-0.08;93.28;98166.09;5051374;28;20056;-72
2020/12/29 10:43:59;;;;;;;94.50;32.85;;;;;;;-0.03;93.37;98166.44;5051126;28;20174;-72
2020/12/29 10:46:24;;;;;;;81.83;29.77;;;;;;;0.00;93.34;98162.72;5051203;28;20139;-72
2020/12/29 10:48:50;;;;;;;95.97;33.85;;;;;;;0.03;93.33;98170.25;5051229;28;20287;-72
2020/12/29 10:51:17;;;;;;;94.50;32.60;;;;;;;0.07;93.28;98171.59;5051802;28;20061;-72
2020/12/29 10:53:42;;;;;;;103.68;34.00;;;;;;;0.10;93.35;98167.81;5052369;28;20048;-72
2020/12/29 10:56:09;;;;;;;97.00;33.77;;;;;;;0.12;93.24;98168.47;5052331;28;20048;-72
2020/12/29 10:58:34;;;;;;;;;;;;;;;0.19;93.27;98170.31;5052152;28;20041;-72
2020/12/29 11:00:59;;;;;;;101.50;33.75;;;;;;;0.29;93.33;98162.28;5051296;28;20613;-72
2020/12/29 11:03:25;;;;;;;99.67;33.97;;;;;;;0.35;93.14;98152.94;5050729;28;20040;-72
2020/12/29 11:05:50;;;;;;;91.30;33.87;;;;;;;0.42;93.17;98156.56;5051943;28;20042;-72
2020/12/29 11:08:15;;;;;;;94.40;32.70;;;;;;;0.44;93.08;98153.78;5051313;28;20043;-72
2020/12/29 11:10:41;;;;;;;98.83;34.77;;;;;;;0.44;93.23;98159.03;5051288;28;20036;-72
2020/12/29 11:13:06;;;;;;;97.03;34.50;;;;;;;0.50;92.88;98156.59;5052367;28;20083;-72
2020/12/29 11:15:33;;;;;;;93.60;37.83;;;;;;;0.56;93.04;98153.34;5052098;28;20048;-72
2020/12/29 11:17:58;;;;;;;104.85;35.15;;;;;;;0.58;93.18;98153.97;5051120;28;20131;-71
2020/12/29 11:20:23;;;;;;;111.20;38.37;;;;;;;0.66;92.88;98149.75;5052348;28;20111;-72
2020/12/29 11:22:49;;;;;;;89.23;35.43;;;;;;;0.68;93.01;98147.75;5051158;28;20068;-72